createdAt,value
2022-09-25T00:00:27.894Z,1005.895
2022-09-25T00:05:30.455Z,1005.872
2022-09-25T00:10:33.078Z,1005.831
2022-09-25T00:15:35.839Z,1005.743
2022-09-25T00:25:41.163Z,1005.715
2022-09-25T00:30:43.998Z,1005.623
2022-09-25T00:35:46.554Z,1005.564
2022-09-25T00:45:52.043Z,1005.505
2022-09-25T00:50:54.428Z,1005.503
2022-09-25T00:55:57.097Z,1005.51
2022-09-25T01:01:00.034Z,1005.509
2022-09-25T01:06:02.571Z,1005.506
2022-09-25T01:11:05.314Z,1005.49
2022-09-25T01:16:07.910Z,1005.475
2022-09-25T01:26:15.712Z,1005.407
2022-09-25T01:31:15.959Z,1005.358
2022-09-25T01:36:18.457Z,1005.349
2022-09-25T01:41:21.382Z,1005.313
2022-09-25T01:46:24.067Z,1005.411
2022-09-25T01:51:26.415Z,1005.353
2022-09-25T01:56:28.842Z,1005.335
2022-09-25T02:01:31.747Z,1005.252
2022-09-25T02:06:34.245Z,1005.273
2022-09-25T02:16:39.588Z,1005.182
2022-09-25T02:21:42.121Z,1005.182
2022-09-25T02:26:44.572Z,1005.193
2022-09-25T02:31:47.339Z,1005.209
2022-09-25T02:36:49.991Z,1005.19
2022-09-25T02:46:55.431Z,1005.192
2022-09-25T02:51:57.900Z,1005.163
2022-09-25T02:57:03.876Z,1005.18
2022-09-25T03:07:05.992Z,1005.153
2022-09-25T03:12:08.611Z,1005.13
2022-09-25T03:17:11.321Z,1005.16
2022-09-25T03:22:14.033Z,1005.181
2022-09-25T03:27:16.789Z,1005.144
2022-09-25T03:32:19.447Z,1005.138
2022-09-25T03:37:22.083Z,1005.141
2022-09-25T03:47:27.198Z,1005.12
2022-09-25T03:52:29.776Z,1005.08
2022-09-25T03:57:32.436Z,1005.056
2022-09-25T04:02:35.239Z,1004.996
2022-09-25T04:12:40.313Z,1005.011
2022-09-25T04:17:43.026Z,1004.98
2022-09-25T04:22:45.641Z,1004.946
2022-09-25T04:27:51.086Z,1004.958
2022-09-25T04:33:08.585Z,1004.991
2022-09-25T04:38:11.786Z,1004.95
2022-09-25T04:43:14.513Z,1004.963
2022-09-25T04:48:17.098Z,1004.949
2022-09-25T04:53:19.634Z,1004.996
2022-09-25T05:03:27.876Z,1005
2022-09-25T05:08:30.427Z,1005.012
2022-09-25T05:13:35.763Z,1004.99
2022-09-25T05:23:41.714Z,1004.993
2022-09-25T05:33:47.063Z,1005.113
2022-09-25T05:43:52.114Z,1005.164
2022-09-25T05:48:54.627Z,1005.108
2022-09-25T05:59:00.417Z,1005.082
2022-09-25T06:04:03.269Z,1005.048
2022-09-25T06:09:05.950Z,1005.045
2022-09-25T06:14:08.835Z,1005.075
2022-09-25T06:19:11.668Z,1004.989
2022-09-25T06:24:14.718Z,1005.031
2022-09-25T06:29:17.575Z,1005.07
2022-09-25T06:34:20.378Z,1005.118
2022-09-25T06:39:23.033Z,1005.154
2022-09-25T06:44:26.156Z,1005.134
2022-09-25T06:49:28.664Z,1005.132
2022-09-25T06:54:31.350Z,1005.12
2022-09-25T06:59:34.245Z,1005.123
2022-09-25T07:04:36.965Z,1005.126
2022-09-25T07:14:46.334Z,1005.106
2022-09-25T07:19:49.019Z,1005.103
2022-09-25T07:24:51.651Z,1005.093
2022-09-25T07:29:54.609Z,1005.004
2022-09-25T07:34:57.329Z,1004.986
2022-09-25T07:40:00.330Z,1005.04
2022-09-25T07:45:02.834Z,1005.057
2022-09-25T07:50:05.187Z,1005.107
2022-09-25T07:55:07.758Z,1005.082
2022-09-25T08:00:10.900Z,1005.032
2022-09-25T08:10:16.495Z,1004.92
2022-09-25T08:20:22.282Z,1004.875
2022-09-25T08:35:30.317Z,1004.921
2022-09-25T08:40:33.035Z,1004.921
2022-09-25T08:45:35.748Z,1004.844
2022-09-25T08:50:38.438Z,1004.856
2022-09-25T08:55:41.075Z,1004.893
2022-09-25T09:00:43.822Z,1004.874
2022-09-25T09:10:49.319Z,1004.886
2022-09-25T09:15:52.051Z,1004.867
2022-09-25T09:20:54.811Z,1004.734
2022-09-25T09:25:57.612Z,1004.756
2022-09-25T09:31:00.416Z,1004.699
2022-09-25T09:36:02.991Z,1004.689
2022-09-25T09:46:08.764Z,1004.619
2022-09-25T09:51:11.492Z,1004.564
2022-09-25T09:56:14.587Z,1004.529
2022-09-25T10:01:36.994Z,1004.545
2022-09-25T10:06:22.557Z,1004.507
2022-09-25T10:11:22.793Z,1004.446
2022-09-25T10:16:25.517Z,1004.405
2022-09-25T10:21:28.374Z,1004.451
2022-09-25T10:26:31.156Z,1004.494
2022-09-25T10:31:33.829Z,1004.42
2022-09-25T10:36:36.425Z,1004.359
2022-09-25T10:41:39.193Z,1004.438
2022-09-25T10:46:42.614Z,1004.352
2022-09-25T10:51:45.128Z,1004.348
2022-09-25T10:56:48.227Z,1004.296
2022-09-25T11:01:51.682Z,1004.294
2022-09-25T11:06:53.978Z,1004.314
2022-09-25T11:11:56.693Z,1004.342
2022-09-25T11:16:59.406Z,1004.367
2022-09-25T11:22:02.061Z,1004.236
2022-09-25T11:27:04.616Z,1004.278
2022-09-25T11:32:07.221Z,1004.17
2022-09-25T11:37:09.693Z,1004.117
2022-09-25T11:42:15.070Z,1004.16
2022-09-25T11:47:17.763Z,1004.004
2022-09-25T11:52:20.644Z,1004.007
2022-09-25T11:57:23.364Z,1003.991
2022-09-25T12:02:25.911Z,1003.866
2022-09-25T12:07:28.648Z,1003.882
2022-09-25T12:12:31.978Z,1003.812
2022-09-25T12:17:34.481Z,1003.805
2022-09-25T12:22:37.017Z,1003.783
2022-09-25T12:32:42.216Z,1003.735
2022-09-25T12:42:47.523Z,1003.654
2022-09-25T12:47:49.916Z,1003.631
2022-09-25T12:57:55.009Z,1003.572
2022-09-25T13:02:57.876Z,1003.533
2022-09-25T13:08:00.477Z,1003.453
2022-09-25T13:13:03.135Z,1003.503
2022-09-25T13:18:05.901Z,1003.499
2022-09-25T13:28:10.855Z,1003.43
2022-09-25T13:33:13.729Z,1003.381
2022-09-25T13:38:16.145Z,1003.352
2022-09-25T13:43:18.852Z,1003.301
2022-09-25T13:48:21.551Z,1003.276
2022-09-25T13:59:22.451Z,1003.165
2022-09-25T14:04:25.058Z,1003.155
2022-09-25T14:09:27.582Z,1003.081
2022-09-25T14:14:30.355Z,1003.11
2022-09-25T14:19:33.157Z,1003.093
2022-09-25T14:24:35.826Z,1003.015
2022-09-25T14:29:39.441Z,1002.982
2022-09-25T14:34:42.170Z,1002.989
2022-09-25T14:39:44.720Z,1002.894
2022-09-25T14:44:47.502Z,1002.852
2022-09-25T14:49:50.183Z,1002.836
2022-09-25T14:54:52.763Z,1002.828
2022-09-25T14:59:55.245Z,1002.757
2022-09-25T15:04:57.968Z,1002.761
2022-09-25T15:10:00.605Z,1002.744
2022-09-25T15:15:03.277Z,1002.779
2022-09-25T15:20:05.948Z,1002.789
2022-09-25T15:25:08.390Z,1002.779
2022-09-25T15:30:10.795Z,1002.702
2022-09-25T15:35:13.626Z,1002.717
2022-09-25T15:40:16.834Z,1002.656
2022-09-25T15:45:19.008Z,1002.581
2022-09-25T15:50:21.909Z,1002.581
2022-09-25T15:55:24.525Z,1002.567
2022-09-25T16:00:27.178Z,1002.55
2022-09-25T16:05:29.913Z,1002.53
2022-09-25T16:10:32.474Z,1002.487
2022-09-25T16:15:34.963Z,1002.437
2022-09-25T16:20:37.487Z,1002.412
2022-09-25T16:25:40.049Z,1002.506
2022-09-25T16:30:42.672Z,1002.502
2022-09-25T16:36:09.263Z,1002.479
2022-09-25T16:40:48.034Z,1002.558
2022-09-25T16:45:50.514Z,1002.605
2022-09-25T16:50:53.139Z,1002.656
2022-09-25T16:55:55.641Z,1002.605
2022-09-25T17:00:58.627Z,1002.492
2022-09-25T17:06:01.143Z,1002.474
2022-09-25T17:11:03.720Z,1002.469
2022-09-25T17:16:06.461Z,1002.412
2022-09-25T17:26:11.963Z,1002.341
2022-09-25T17:31:14.837Z,1002.391
2022-09-25T17:36:17.347Z,1002.426
2022-09-25T17:41:20.041Z,1002.507
2022-09-25T17:46:22.776Z,1002.55
2022-09-25T17:51:25.261Z,1002.526
2022-09-25T17:56:28.794Z,1002.541
2022-09-25T18:01:34.139Z,1002.613
2022-09-25T18:11:39.406Z,1002.57
2022-09-25T18:16:42.241Z,1002.513
2022-09-25T18:21:44.859Z,1002.549
2022-09-25T18:26:47.636Z,1002.528
2022-09-25T18:31:55.880Z,1002.509
2022-09-25T18:36:58.766Z,1002.458
2022-09-25T18:42:01.331Z,1002.403
2022-09-25T18:47:03.797Z,1002.409
2022-09-25T18:52:06.648Z,1002.453
2022-09-25T18:57:09.258Z,1002.45
2022-09-25T19:02:12.130Z,1002.489
2022-09-25T19:12:18.392Z,1002.411
2022-09-25T19:17:21.104Z,1002.358
2022-09-25T19:22:24.114Z,1002.418
2022-09-25T19:32:29.335Z,1002.378
2022-09-25T19:37:41.176Z,1002.304
2022-09-25T19:42:43.699Z,1002.307
2022-09-25T19:47:46.654Z,1002.283
2022-09-25T19:52:51.018Z,1002.238
2022-09-25T19:57:51.464Z,1002.234
2022-09-25T20:02:54.254Z,1002.249
2022-09-25T20:07:56.694Z,1002.199
2022-09-25T20:12:59.468Z,1002.172
2022-09-25T20:18:02.239Z,1002.181
2022-09-25T20:23:04.885Z,1002.239
2022-09-25T20:28:07.610Z,1002.169
2022-09-25T20:33:10.409Z,1002.07
2022-09-25T20:43:21.565Z,1002.116
2022-09-25T20:48:24.233Z,1002.084
2022-09-25T20:53:26.799Z,1002.005
2022-09-25T20:58:29.442Z,1001.943
2022-09-25T21:03:32.230Z,1002.033
2022-09-25T21:13:37.762Z,1001.924
2022-09-25T21:18:40.530Z,1001.875
2022-09-25T21:23:43.182Z,1001.904
2022-09-25T21:28:45.905Z,1001.853
2022-09-25T21:33:48.663Z,1001.721
2022-09-25T21:38:51.341Z,1001.717
2022-09-25T21:48:56.771Z,1001.683
2022-09-25T21:53:59.485Z,1001.645
2022-09-25T22:04:04.749Z,1001.579
2022-09-25T22:09:07.456Z,1001.528
2022-09-25T22:14:14.883Z,1001.538
2022-09-25T22:19:12.742Z,1001.577
2022-09-25T22:24:15.057Z,1001.593
2022-09-25T22:49:28.201Z,1001.488
2022-09-25T22:54:30.694Z,1001.454
2022-09-25T23:04:36.251Z,1001.396
2022-09-25T23:09:39.023Z,1001.305
2022-09-25T23:14:41.621Z,1001.449
2022-09-25T23:19:44.297Z,1001.358
2022-09-25T23:24:49.635Z,1001.304
2022-09-25T23:29:52.373Z,1001.218
2022-09-25T23:34:55.096Z,1001.228
2022-09-25T23:39:57.726Z,1001.208
2022-09-25T23:45:00.419Z,1001.187
2022-09-25T23:50:04.725Z,1001.102
